sensor_id;sensor_type;location;lat;lon;timestamp;temperature;humidity
15564;DHT22;7883;52.554;13.364;2023-04-24T00:01:09;14.30;99.90
15564;DHT22;7883;52.554;13.364;2023-04-24T00:03:36;14.30;99.90
15564;DHT22;7883;52.554;13.364;2023-04-24T00:06:05;14.20;99.90
15564;DHT22;7883;52.554;13.364;2023-04-24T00:08:33;14.30;99.90
15564;DHT22;7883;52.554;13.364;2023-04-24T00:11:00;14.30;99.90
15564;DHT22;7883;52.554;13.364;2023-04-24T00:13:29;14.40;99.90
15564;DHT22;7883;52.554;13.364;2023-04-24T00:15:56;14.30;99.90
15564;DHT22;7883;52.554;13.364;2023-04-24T00:18:23;14.30;99.90
15564;DHT22;7883;52.554;13.364;2023-04-24T00:20:49;14.40;99.90
15564;DHT22;7883;52.554;13.364;2023-04-24T00:23:18;14.40;99.90
15564;DHT22;7883;52.554;13.364;2023-04-24T00:25:45;14.30;99.90
15564;DHT22;7883;52.554;13.364;2023-04-24T00:28:11;14.30;99.90
15564;DHT22;7883;52.554;13.364;2023-04-24T00:30:38;14.20;99.90
15564;DHT22;7883;52.554;13.364;2023-04-24T00:33:06;14.20;99.90
15564;DHT22;7883;52.554;13.364;2023-04-24T00:35:33;14.30;99.90
15564;DHT22;7883;52.554;13.364;2023-04-24T00:38:00;14.20;99.90
15564;DHT22;7883;52.554;13.364;2023-04-24T00:40:28;14.10;99.90
15564;DHT22;7883;52.554;13.364;2023-04-24T00:42:56;14.10;99.90
15564;DHT22;7883;52.554;13.364;2023-04-24T00:45:23;14.10;99.90
15564;DHT22;7883;52.554;13.364;2023-04-24T00:47:52;14.00;99.90
15564;DHT22;7883;52.554;13.364;2023-04-24T00:50:20;14.00;99.90
15564;DHT22;7883;52.554;13.364;2023-04-24T00:52:47;14.20;99.90
15564;DHT22;7883;52.554;13.364;2023-04-24T00:55:14;14.10;99.90
15564;DHT22;7883;52.554;13.364;2023-04-24T00:57:43;14.00;99.90
15564;DHT22;7883;52.554;13.364;2023-04-24T01:00:11;14.00;99.90
15564;DHT22;7883;52.554;13.364;2023-04-24T01:02:39;13.90;99.90
15564;DHT22;7883;52.554;13.364;2023-04-24T01:05:09;13.80;99.90
15564;DHT22;7883;52.554;13.364;2023-04-24T01:07:38;13.80;99.90
15564;DHT22;7883;52.554;13.364;2023-04-24T01:10:06;14.00;99.90
15564;DHT22;7883;52.554;13.364;2023-04-24T01:12:33;14.00;99.90
15564;DHT22;7883;52.554;13.364;2023-04-24T01:15:02;14.20;99.90
15564;DHT22;7883;52.554;13.364;2023-04-24T01:17:30;14.30;99.90
15564;DHT22;7883;52.554;13.364;2023-04-24T01:19:58;14.30;99.90
15564;DHT22;7883;52.554;13.364;2023-04-24T01:22:27;14.40;99.90
15564;DHT22;7883;52.554;13.364;2023-04-24T01:24:54;14.40;99.90
15564;DHT22;7883;52.554;13.364;2023-04-24T01:27:21;14.40;99.90
15564;DHT22;7883;52.554;13.364;2023-04-24T01:29:48;14.40;99.90
15564;DHT22;7883;52.554;13.364;2023-04-24T01:32:17;14.40;99.90
15564;DHT22;7883;52.554;13.364;2023-04-24T01:34:44;14.40;99.90
15564;DHT22;7883;52.554;13.364;2023-04-24T01:37:11;14.40;99.90
15564;DHT22;7883;52.554;13.364;2023-04-24T01:39:40;14.20;99.90
15564;DHT22;7883;52.554;13.364;2023-04-24T01:42:07;14.20;99.90
15564;DHT22;7883;52.554;13.364;2023-04-24T01:44:34;14.30;99.90
15564;DHT22;7883;52.554;13.364;2023-04-24T01:47:01;14.30;99.90
15564;DHT22;7883;52.554;13.364;2023-04-24T01:49:28;14.40;99.90
15564;DHT22;7883;52.554;13.364;2023-04-24T01:51:56;14.40;99.90
15564;DHT22;7883;52.554;13.364;2023-04-24T01:54:23;14.50;99.90
15564;DHT22;7883;52.554;13.364;2023-04-24T01:56:51;14.50;99.90
15564;DHT22;7883;52.554;13.364;2023-04-24T01:59:18;14.50;99.90
15564;DHT22;7883;52.554;13.364;2023-04-24T02:01:48;14.40;99.90
15564;DHT22;7883;52.554;13.364;2023-04-24T02:04:15;14.50;99.90
15564;DHT22;7883;52.554;13.364;2023-04-24T02:06:42;14.40;99.90
15564;DHT22;7883;52.554;13.364;2023-04-24T02:09:09;14.30;99.90
15564;DHT22;7883;52.554;13.364;2023-04-24T02:11:36;14.30;99.90
15564;DHT22;7883;52.554;13.364;2023-04-24T02:14:04;14.30;99.90
15564;DHT22;7883;52.554;13.364;2023-04-24T02:16:31;14.30;99.90
15564;DHT22;7883;52.554;13.364;2023-04-24T02:18:59;14.30;99.90
15564;DHT22;7883;52.554;13.364;2023-04-24T02:21:26;14.40;99.90
15564;DHT22;7883;52.554;13.364;2023-04-24T02:23:54;14.20;99.90
15564;DHT22;7883;52.554;13.364;2023-04-24T02:26:21;14.20;99.90
15564;DHT22;7883;52.554;13.364;2023-04-24T02:28:47;14.20;99.90
15564;DHT22;7883;52.554;13.364;2023-04-24T02:31:16;14.10;99.90
15564;DHT22;7883;52.554;13.364;2023-04-24T02:33:43;14.20;99.90
15564;DHT22;7883;52.554;13.364;2023-04-24T02:36:10;14.20;99.90
15564;DHT22;7883;52.554;13.364;2023-04-24T02:38:38;14.20;99.90
15564;DHT22;7883;52.554;13.364;2023-04-24T02:41:06;14.20;99.90
15564;DHT22;7883;52.554;13.364;2023-04-24T02:43:32;14.10;99.90
15564;DHT22;7883;52.554;13.364;2023-04-24T02:46:00;14.30;99.90
15564;DHT22;7883;52.554;13.364;2023-04-24T02:48:28;14.30;99.90
15564;DHT22;7883;52.554;13.364;2023-04-24T02:50:55;14.40;99.90
15564;DHT22;7883;52.554;13.364;2023-04-24T02:53:23;14.40;99.90
15564;DHT22;7883;52.554;13.364;2023-04-24T02:55:50;14.50;99.90
15564;DHT22;7883;52.554;13.364;2023-04-24T02:58:18;14.50;99.90
15564;DHT22;7883;52.554;13.364;2023-04-24T03:00:46;14.50;99.90
15564;DHT22;7883;52.554;13.364;2023-04-24T03:03:14;14.50;99.90
15564;DHT22;7883;52.554;13.364;2023-04-24T03:05:43;14.40;99.90
15564;DHT22;7883;52.554;13.364;2023-04-24T03:08:10;14.40;99.90
15564;DHT22;7883;52.554;13.364;2023-04-24T03:10:37;14.40;99.90
15564;DHT22;7883;52.554;13.364;2023-04-24T03:13:04;14.30;99.90
15564;DHT22;7883;52.554;13.364;2023-04-24T03:15:31;14.30;99.90
15564;DHT22;7883;52.554;13.364;2023-04-24T03:17:58;14.30;99.90
15564;DHT22;7883;52.554;13.364;2023-04-24T03:20:26;14.40;99.90
15564;DHT22;7883;52.554;13.364;2023-04-24T03:22:54;14.40;99.90
15564;DHT22;7883;52.554;13.364;2023-04-24T03:25:22;14.20;99.90
15564;DHT22;7883;52.554;13.364;2023-04-24T03:27:49;14.20;99.90
15564;DHT22;7883;52.554;13.364;2023-04-24T03:30:16;14.30;99.90
15564;DHT22;7883;52.554;13.364;2023-04-24T03:32:44;14.40;99.90
15564;DHT22;7883;52.554;13.364;2023-04-24T03:35:11;14.30;99.90
15564;DHT22;7883;52.554;13.364;2023-04-24T03:37:38;14.30;99.90
15564;DHT22;7883;52.554;13.364;2023-04-24T03:40:08;14.40;99.90
15564;DHT22;7883;52.554;13.364;2023-04-24T03:42:35;14.40;99.90
15564;DHT22;7883;52.554;13.364;2023-04-24T03:45:02;14.40;99.90
15564;DHT22;7883;52.554;13.364;2023-04-24T03:47:29;14.30;99.90
15564;DHT22;7883;52.554;13.364;2023-04-24T03:49:56;14.30;99.90
15564;DHT22;7883;52.554;13.364;2023-04-24T03:52:23;14.30;99.90
15564;DHT22;7883;52.554;13.364;2023-04-24T03:54:50;14.30;99.90
15564;DHT22;7883;52.554;13.364;2023-04-24T03:57:19;14.40;99.90
15564;DHT22;7883;52.554;13.364;2023-04-24T03:59:46;14.40;99.90
15564;DHT22;7883;52.554;13.364;2023-04-24T04:02:13;14.40;99.90
15564;DHT22;7883;52.554;13.364;2023-04-24T04:04:39;14.40;99.90
15564;DHT22;7883;52.554;13.364;2023-04-24T04:07:06;14.40;99.90
15564;DHT22;7883;52.554;13.364;2023-04-24T04:09:34;14.50;99.90
15564;DHT22;7883;52.554;13.364;2023-04-24T04:12:01;14.50;99.90
15564;DHT22;7883;52.554;13.364;2023-04-24T04:14:34;14.50;99.90
15564;DHT22;7883;52.554;13.364;2023-04-24T04:17:01;14.50;99.90
15564;DHT22;7883;52.554;13.364;2023-04-24T04:19:28;14.50;99.90
15564;DHT22;7883;52.554;13.364;2023-04-24T04:21:55;14.40;99.90
15564;DHT22;7883;52.554;13.364;2023-04-24T04:24:22;14.30;99.90
15564;DHT22;7883;52.554;13.364;2023-04-24T04:26:49;14.40;99.90
15564;DHT22;7883;52.554;13.364;2023-04-24T04:29:16;14.40;99.90
15564;DHT22;7883;52.554;13.364;2023-04-24T04:31:45;14.40;99.90
15564;DHT22;7883;52.554;13.364;2023-04-24T04:34:13;14.50;99.90
15564;DHT22;7883;52.554;13.364;2023-04-24T04:36:42;14.40;99.90
15564;DHT22;7883;52.554;13.364;2023-04-24T04:39:09;14.50;99.90
15564;DHT22;7883;52.554;13.364;2023-04-24T04:41:36;14.50;99.90
15564;DHT22;7883;52.554;13.364;2023-04-24T04:44:05;14.40;99.90
15564;DHT22;7883;52.554;13.364;2023-04-24T04:46:34;14.50;99.90
15564;DHT22;7883;52.554;13.364;2023-04-24T04:49:04;14.40;99.90
15564;DHT22;7883;52.554;13.364;2023-04-24T04:51:31;14.40;99.90
15564;DHT22;7883;52.554;13.364;2023-04-24T04:53:58;14.40;99.90
15564;DHT22;7883;52.554;13.364;2023-04-24T04:56:26;14.40;99.90
15564;DHT22;7883;52.554;13.364;2023-04-24T04:58:53;14.30;99.90
15564;DHT22;7883;52.554;13.364;2023-04-24T05:01:20;14.40;99.90
15564;DHT22;7883;52.554;13.364;2023-04-24T05:03:48;14.50;99.90
15564;DHT22;7883;52.554;13.364;2023-04-24T05:06:16;14.40;99.90
15564;DHT22;7883;52.554;13.364;2023-04-24T05:08:43;14.30;99.90
15564;DHT22;7883;52.554;13.364;2023-04-24T05:11:10;14.40;99.90
15564;DHT22;7883;52.554;13.364;2023-04-24T05:13:37;14.50;99.90
15564;DHT22;7883;52.554;13.364;2023-04-24T05:16:04;14.50;99.90
15564;DHT22;7883;52.554;13.364;2023-04-24T05:18:31;14.60;99.90
15564;DHT22;7883;52.554;13.364;2023-04-24T05:20:58;14.70;99.90
15564;DHT22;7883;52.554;13.364;2023-04-24T05:23:26;14.70;99.90
15564;DHT22;7883;52.554;13.364;2023-04-24T05:25:54;14.80;99.90
15564;DHT22;7883;52.554;13.364;2023-04-24T05:28:21;14.90;99.90
15564;DHT22;7883;52.554;13.364;2023-04-24T05:30:48;14.90;99.90
15564;DHT22;7883;52.554;13.364;2023-04-24T05:33:15;15.00;99.90
15564;DHT22;7883;52.554;13.364;2023-04-24T05:35:42;15.00;99.90
15564;DHT22;7883;52.554;13.364;2023-04-24T05:38:12;15.00;99.90
15564;DHT22;7883;52.554;13.364;2023-04-24T05:40:40;15.00;99.90
15564;DHT22;7883;52.554;13.364;2023-04-24T05:43:07;15.10;99.90
15564;DHT22;7883;52.554;13.364;2023-04-24T05:45:34;15.10;99.90
15564;DHT22;7883;52.554;13.364;2023-04-24T05:48:01;15.00;99.90
15564;DHT22;7883;52.554;13.364;2023-04-24T05:50:28;15.00;99.90
15564;DHT22;7883;52.554;13.364;2023-04-24T05:52:55;14.90;99.90
15564;DHT22;7883;52.554;13.364;2023-04-24T05:55:23;14.80;99.90
15564;DHT22;7883;52.554;13.364;2023-04-24T05:57:52;14.90;99.90
15564;DHT22;7883;52.554;13.364;2023-04-24T06:00:19;14.80;99.90
15564;DHT22;7883;52.554;13.364;2023-04-24T06:02:46;14.70;99.90
15564;DHT22;7883;52.554;13.364;2023-04-24T06:05:13;14.80;99.90
15564;DHT22;7883;52.554;13.364;2023-04-24T06:07:40;14.80;99.90
15564;DHT22;7883;52.554;13.364;2023-04-24T06:10:08;14.90;99.90
15564;DHT22;7883;52.554;13.364;2023-04-24T06:12:35;14.90;99.90
15564;DHT22;7883;52.554;13.364;2023-04-24T06:15:04;14.90;99.90
15564;DHT22;7883;52.554;13.364;2023-04-24T06:17:31;15.00;99.90
15564;DHT22;7883;52.554;13.364;2023-04-24T06:19:58;15.00;99.90
15564;DHT22;7883;52.554;13.364;2023-04-24T06:22:25;14.90;99.90
15564;DHT22;7883;52.554;13.364;2023-04-24T06:24:52;14.90;99.90
15564;DHT22;7883;52.554;13.364;2023-04-24T06:27:18;15.00;99.90
15564;DHT22;7883;52.554;13.364;2023-04-24T06:29:45;15.00;99.90
15564;DHT22;7883;52.554;13.364;2023-04-24T06:32:19;15.00;99.90
15564;DHT22;7883;52.554;13.364;2023-04-24T06:34:46;15.00;99.90
15564;DHT22;7883;52.554;13.364;2023-04-24T06:37:13;15.10;99.90
15564;DHT22;7883;52.554;13.364;2023-04-24T06:39:41;15.20;99.90
15564;DHT22;7883;52.554;13.364;2023-04-24T06:42:08;15.30;99.90
15564;DHT22;7883;52.554;13.364;2023-04-24T06:44:35;15.50;99.90
15564;DHT22;7883;52.554;13.364;2023-04-24T06:47:06;15.50;99.90
15564;DHT22;7883;52.554;13.364;2023-04-24T06:49:34;15.60;99.90
15564;DHT22;7883;52.554;13.364;2023-04-24T06:52:02;15.60;99.90
15564;DHT22;7883;52.554;13.364;2023-04-24T06:54:29;15.70;99.90
15564;DHT22;7883;52.554;13.364;2023-04-24T06:56:56;15.80;99.90
15564;DHT22;7883;52.554;13.364;2023-04-24T06:59:24;15.80;99.90
15564;DHT22;7883;52.554;13.364;2023-04-24T07:01:51;15.80;99.90
15564;DHT22;7883;52.554;13.364;2023-04-24T07:04:18;15.90;99.90
15564;DHT22;7883;52.554;13.364;2023-04-24T07:06:46;15.80;99.90
15564;DHT22;7883;52.554;13.364;2023-04-24T07:09:15;15.80;99.90
15564;DHT22;7883;52.554;13.364;2023-04-24T07:11:43;15.90;99.90
15564;DHT22;7883;52.554;13.364;2023-04-24T07:14:11;15.90;99.90
15564;DHT22;7883;52.554;13.364;2023-04-24T07:16:38;15.90;99.90
15564;DHT22;7883;52.554;13.364;2023-04-24T07:19:05;15.90;99.90
15564;DHT22;7883;52.554;13.364;2023-04-24T07:21:32;15.90;99.90
15564;DHT22;7883;52.554;13.364;2023-04-24T07:24:01;16.00;99.90
15564;DHT22;7883;52.554;13.364;2023-04-24T07:26:30;16.00;99.90
15564;DHT22;7883;52.554;13.364;2023-04-24T07:28:58;16.10;99.90
15564;DHT22;7883;52.554;13.364;2023-04-24T07:31:25;16.10;99.90
15564;DHT22;7883;52.554;13.364;2023-04-24T07:33:53;16.20;99.90
15564;DHT22;7883;52.554;13.364;2023-04-24T07:36:23;16.20;99.90
15564;DHT22;7883;52.554;13.364;2023-04-24T07:38:51;16.20;99.90
15564;DHT22;7883;52.554;13.364;2023-04-24T07:41:20;16.20;99.90
15564;DHT22;7883;52.554;13.364;2023-04-24T07:43:48;16.30;99.90
15564;DHT22;7883;52.554;13.364;2023-04-24T07:46:15;16.40;99.90
15564;DHT22;7883;52.554;13.364;2023-04-24T07:48:42;16.30;99.90
15564;DHT22;7883;52.554;13.364;2023-04-24T07:51:10;16.20;99.90
15564;DHT22;7883;52.554;13.364;2023-04-24T07:53:38;16.20;99.90
15564;DHT22;7883;52.554;13.364;2023-04-24T07:56:06;16.30;99.90
15564;DHT22;7883;52.554;13.364;2023-04-24T07:58:34;16.30;99.90
15564;DHT22;7883;52.554;13.364;2023-04-24T08:01:02;16.30;99.90
15564;DHT22;7883;52.554;13.364;2023-04-24T08:03:29;16.50;99.90
15564;DHT22;7883;52.554;13.364;2023-04-24T08:05:56;16.50;99.90
15564;DHT22;7883;52.554;13.364;2023-04-24T08:08:24;16.60;99.90
15564;DHT22;7883;52.554;13.364;2023-04-24T08:10:52;16.70;99.90
15564;DHT22;7883;52.554;13.364;2023-04-24T08:13:20;16.80;99.90
15564;DHT22;7883;52.554;13.364;2023-04-24T08:15:48;16.70;99.90
15564;DHT22;7883;52.554;13.364;2023-04-24T08:18:15;16.80;99.90
15564;DHT22;7883;52.554;13.364;2023-04-24T08:20:42;16.80;99.90
15564;DHT22;7883;52.554;13.364;2023-04-24T08:23:11;16.70;99.90
15564;DHT22;7883;52.554;13.364;2023-04-24T08:25:38;16.70;99.90
15564;DHT22;7883;52.554;13.364;2023-04-24T08:28:06;16.80;99.90
15564;DHT22;7883;52.554;13.364;2023-04-24T08:30:33;16.80;99.90
15564;DHT22;7883;52.554;13.364;2023-04-24T08:33:03;16.80;99.90
15564;DHT22;7883;52.554;13.364;2023-04-24T08:35:30;16.80;99.90
15564;DHT22;7883;52.554;13.364;2023-04-24T08:37:57;16.80;99.90
15564;DHT22;7883;52.554;13.364;2023-04-24T08:40:28;16.90;99.90
15564;DHT22;7883;52.554;13.364;2023-04-24T08:42:55;17.10;99.90
15564;DHT22;7883;52.554;13.364;2023-04-24T08:45:25;17.30;99.90
15564;DHT22;7883;52.554;13.364;2023-04-24T08:47:53;17.40;99.90
15564;DHT22;7883;52.554;13.364;2023-04-24T08:50:22;17.40;99.90
15564;DHT22;7883;52.554;13.364;2023-04-24T08:52:50;17.50;99.90
15564;DHT22;7883;52.554;13.364;2023-04-24T08:55:19;17.50;99.90
15564;DHT22;7883;52.554;13.364;2023-04-24T08:57:50;17.60;99.90
15564;DHT22;7883;52.554;13.364;2023-04-24T09:00:18;17.80;99.90
15564;DHT22;7883;52.554;13.364;2023-04-24T09:02:47;17.90;99.90
15564;DHT22;7883;52.554;13.364;2023-04-24T09:05:16;17.90;99.90
15564;DHT22;7883;52.554;13.364;2023-04-24T09:07:51;17.90;99.90
15564;DHT22;7883;52.554;13.364;2023-04-24T09:10:20;18.00;99.90
15564;DHT22;7883;52.554;13.364;2023-04-24T09:12:50;17.90;99.90
15564;DHT22;7883;52.554;13.364;2023-04-24T09:15:17;17.90;99.90
15564;DHT22;7883;52.554;13.364;2023-04-24T09:17:46;17.90;99.90
15564;DHT22;7883;52.554;13.364;2023-04-24T09:20:14;18.00;99.90
15564;DHT22;7883;52.554;13.364;2023-04-24T09:22:42;17.90;99.90
15564;DHT22;7883;52.554;13.364;2023-04-24T09:25:11;18.00;99.90
15564;DHT22;7883;52.554;13.364;2023-04-24T09:27:41;17.80;99.90
15564;DHT22;7883;52.554;13.364;2023-04-24T09:30:11;17.80;99.90
15564;DHT22;7883;52.554;13.364;2023-04-24T09:32:38;17.90;99.90
15564;DHT22;7883;52.554;13.364;2023-04-24T09:35:07;18.10;99.90
15564;DHT22;7883;52.554;13.364;2023-04-24T09:37:38;18.10;99.90
15564;DHT22;7883;52.554;13.364;2023-04-24T09:40:15;18.10;99.90
15564;DHT22;7883;52.554;13.364;2023-04-24T09:42:46;17.90;99.90
15564;DHT22;7883;52.554;13.364;2023-04-24T09:45:13;17.70;99.90
15564;DHT22;7883;52.554;13.364;2023-04-24T09:47:41;17.60;99.90
15564;DHT22;7883;52.554;13.364;2023-04-24T09:50:13;17.70;99.90
15564;DHT22;7883;52.554;13.364;2023-04-24T09:52:41;17.90;99.90
15564;DHT22;7883;52.554;13.364;2023-04-24T09:55:19;17.90;99.90
15564;DHT22;7883;52.554;13.364;2023-04-24T09:57:50;17.90;99.90
15564;DHT22;7883;52.554;13.364;2023-04-24T10:00:25;17.80;99.90
15564;DHT22;7883;52.554;13.364;2023-04-24T10:02:58;18.00;99.90
15564;DHT22;7883;52.554;13.364;2023-04-24T10:05:28;18.10;99.90
15564;DHT22;7883;52.554;13.364;2023-04-24T10:07:57;18.20;99.90
15564;DHT22;7883;52.554;13.364;2023-04-24T10:10:26;18.50;99.90
15564;DHT22;7883;52.554;13.364;2023-04-24T10:12:53;18.50;99.90
15564;DHT22;7883;52.554;13.364;2023-04-24T10:15:21;18.60;99.90
15564;DHT22;7883;52.554;13.364;2023-04-24T10:17:49;18.50;99.90
15564;DHT22;7883;52.554;13.364;2023-04-24T10:20:19;18.70;99.90
15564;DHT22;7883;52.554;13.364;2023-04-24T10:22:48;18.70;99.90
15564;DHT22;7883;52.554;13.364;2023-04-24T10:25:18;18.70;99.90
15564;DHT22;7883;52.554;13.364;2023-04-24T10:27:48;18.80;99.90
15564;DHT22;7883;52.554;13.364;2023-04-24T10:30:16;18.80;99.90
15564;DHT22;7883;52.554;13.364;2023-04-24T10:32:43;18.70;99.90
15564;DHT22;7883;52.554;13.364;2023-04-24T10:35:13;18.50;99.90
15564;DHT22;7883;52.554;13.364;2023-04-24T10:37:43;18.40;99.90
15564;DHT22;7883;52.554;13.364;2023-04-24T10:40:12;18.30;99.90
15564;DHT22;7883;52.554;13.364;2023-04-24T10:42:42;18.10;99.90
15564;DHT22;7883;52.554;13.364;2023-04-24T10:45:18;18.00;99.90
15564;DHT22;7883;52.554;13.364;2023-04-24T10:47:56;17.90;99.90
15564;DHT22;7883;52.554;13.364;2023-04-24T10:50:24;17.90;99.90
15564;DHT22;7883;52.554;13.364;2023-04-24T10:52:51;17.70;99.90
15564;DHT22;7883;52.554;13.364;2023-04-24T10:55:41;17.80;99.90
15564;DHT22;7883;52.554;13.364;2023-04-24T10:58:09;17.80;99.90
15564;DHT22;7883;52.554;13.364;2023-04-24T11:00:39;17.80;99.90
15564;DHT22;7883;52.554;13.364;2023-04-24T11:03:07;17.90;99.90
15564;DHT22;7883;52.554;13.364;2023-04-24T11:05:52;18.10;99.90
15564;DHT22;7883;52.554;13.364;2023-04-24T11:08:25;18.40;99.90
15564;DHT22;7883;52.554;13.364;2023-04-24T11:10:58;18.80;99.90
15564;DHT22;7883;52.554;13.364;2023-04-24T11:13:27;18.90;99.90
15564;DHT22;7883;52.554;13.364;2023-04-24T11:16:14;18.90;99.90
15564;DHT22;7883;52.554;13.364;2023-04-24T11:18:42;18.90;99.90
15564;DHT22;7883;52.554;13.364;2023-04-24T11:21:17;19.00;99.90
15564;DHT22;7883;52.554;13.364;2023-04-24T11:23:45;19.10;99.90
15564;DHT22;7883;52.554;13.364;2023-04-24T11:26:12;19.20;99.90
15564;DHT22;7883;52.554;13.364;2023-04-24T11:28:46;19.20;99.90
15564;DHT22;7883;52.554;13.364;2023-04-24T11:31:37;19.00;99.90
15564;DHT22;7883;52.554;13.364;2023-04-24T11:34:12;18.80;99.90
15564;DHT22;7883;52.554;13.364;2023-04-24T11:36:40;18.70;99.90
15564;DHT22;7883;52.554;13.364;2023-04-24T11:39:07;18.30;99.90
15564;DHT22;7883;52.554;13.364;2023-04-24T11:41:34;17.80;99.90
15564;DHT22;7883;52.554;13.364;2023-04-24T11:44:03;17.50;99.90
15564;DHT22;7883;52.554;13.364;2023-04-24T11:46:32;17.30;99.90
15564;DHT22;7883;52.554;13.364;2023-04-24T11:49:00;17.00;99.90
15564;DHT22;7883;52.554;13.364;2023-04-24T11:51:27;16.80;99.90
15564;DHT22;7883;52.554;13.364;2023-04-24T11:53:55;16.60;99.90
15564;DHT22;7883;52.554;13.364;2023-04-24T11:56:23;16.70;99.90
15564;DHT22;7883;52.554;13.364;2023-04-24T11:58:52;16.70;99.90
15564;DHT22;7883;52.554;13.364;2023-04-24T12:01:20;16.90;99.90
15564;DHT22;7883;52.554;13.364;2023-04-24T12:03:48;17.40;99.90
15564;DHT22;7883;52.554;13.364;2023-04-24T12:06:18;17.80;99.90
15564;DHT22;7883;52.554;13.364;2023-04-24T12:08:48;18.00;99.90
15564;DHT22;7883;52.554;13.364;2023-04-24T12:11:16;18.20;99.90
15564;DHT22;7883;52.554;13.364;2023-04-24T12:13:46;18.40;99.90
15564;DHT22;7883;52.554;13.364;2023-04-24T12:16:13;18.40;99.90
15564;DHT22;7883;52.554;13.364;2023-04-24T12:18:44;18.40;99.90
15564;DHT22;7883;52.554;13.364;2023-04-24T12:21:16;18.20;99.90
15564;DHT22;7883;52.554;13.364;2023-04-24T12:23:43;18.20;99.90
15564;DHT22;7883;52.554;13.364;2023-04-24T12:26:11;18.50;99.90
15564;DHT22;7883;52.554;13.364;2023-04-24T12:28:38;18.50;99.90
15564;DHT22;7883;52.554;13.364;2023-04-24T12:31:06;18.60;99.90
15564;DHT22;7883;52.554;13.364;2023-04-24T12:33:35;18.70;99.90
15564;DHT22;7883;52.554;13.364;2023-04-24T12:36:02;18.90;99.90
15564;DHT22;7883;52.554;13.364;2023-04-24T12:38:32;18.90;99.90
15564;DHT22;7883;52.554;13.364;2023-04-24T12:41:06;19.00;99.90
15564;DHT22;7883;52.554;13.364;2023-04-24T12:43:34;19.10;99.90
15564;DHT22;7883;52.554;13.364;2023-04-24T12:46:01;19.00;99.90
15564;DHT22;7883;52.554;13.364;2023-04-24T12:48:29;19.10;99.90
15564;DHT22;7883;52.554;13.364;2023-04-24T12:50:57;18.90;99.90
15564;DHT22;7883;52.554;13.364;2023-04-24T12:53:27;18.80;99.90
15564;DHT22;7883;52.554;13.364;2023-04-24T12:55:57;18.60;99.90
15564;DHT22;7883;52.554;13.364;2023-04-24T12:58:24;18.30;99.90
15564;DHT22;7883;52.554;13.364;2023-04-24T13:00:51;18.20;99.90
15564;DHT22;7883;52.554;13.364;2023-04-24T13:03:18;18.20;99.90
15564;DHT22;7883;52.554;13.364;2023-04-24T13:05:45;18.30;99.90
15564;DHT22;7883;52.554;13.364;2023-04-24T13:08:12;18.30;99.90
15564;DHT22;7883;52.554;13.364;2023-04-24T13:10:39;18.30;99.90
15564;DHT22;7883;52.554;13.364;2023-04-24T13:13:08;18.20;99.90
15564;DHT22;7883;52.554;13.364;2023-04-24T13:15:35;18.20;99.90
15564;DHT22;7883;52.554;13.364;2023-04-24T13:18:02;18.10;99.90
15564;DHT22;7883;52.554;13.364;2023-04-24T13:20:29;18.40;99.90
15564;DHT22;7883;52.554;13.364;2023-04-24T13:22:56;18.50;99.90
15564;DHT22;7883;52.554;13.364;2023-04-24T13:25:23;18.60;99.90
15564;DHT22;7883;52.554;13.364;2023-04-24T13:27:50;18.70;99.90
15564;DHT22;7883;52.554;13.364;2023-04-24T13:30:19;18.60;99.90
15564;DHT22;7883;52.554;13.364;2023-04-24T13:32:46;18.50;99.90
15564;DHT22;7883;52.554;13.364;2023-04-24T13:35:13;18.40;99.90
15564;DHT22;7883;52.554;13.364;2023-04-24T13:37:40;18.30;99.90
15564;DHT22;7883;52.554;13.364;2023-04-24T13:40:08;18.20;99.90
15564;DHT22;7883;52.554;13.364;2023-04-24T13:42:35;18.00;99.90
15564;DHT22;7883;52.554;13.364;2023-04-24T13:45:02;18.00;99.90
15564;DHT22;7883;52.554;13.364;2023-04-24T13:47:32;17.90;99.90
15564;DHT22;7883;52.554;13.364;2023-04-24T13:49:59;17.90;99.90
15564;DHT22;7883;52.554;13.364;2023-04-24T13:52:26;18.20;99.90
15564;DHT22;7883;52.554;13.364;2023-04-24T13:54:53;18.30;99.90
15564;DHT22;7883;52.554;13.364;2023-04-24T13:57:21;18.20;99.90
15564;DHT22;7883;52.554;13.364;2023-04-24T13:59:48;18.30;99.90
15564;DHT22;7883;52.554;13.364;2023-04-24T14:02:15;18.30;99.90
15564;DHT22;7883;52.554;13.364;2023-04-24T14:04:46;18.30;99.90
15564;DHT22;7883;52.554;13.364;2023-04-24T14:07:13;18.20;99.90
15564;DHT22;7883;52.554;13.364;2023-04-24T14:09:40;18.10;99.90
15564;DHT22;7883;52.554;13.364;2023-04-24T14:12:07;18.10;99.90
15564;DHT22;7883;52.554;13.364;2023-04-24T14:14:34;18.00;99.90
15564;DHT22;7883;52.554;13.364;2023-04-24T14:17:01;18.00;99.90
15564;DHT22;7883;52.554;13.364;2023-04-24T14:19:28;18.00;99.90
15564;DHT22;7883;52.554;13.364;2023-04-24T14:21:57;18.10;99.90
15564;DHT22;7883;52.554;13.364;2023-04-24T14:24:24;18.20;99.90
15564;DHT22;7883;52.554;13.364;2023-04-24T14:26:52;18.30;99.90
15564;DHT22;7883;52.554;13.364;2023-04-24T14:29:18;18.30;99.90
15564;DHT22;7883;52.554;13.364;2023-04-24T14:31:46;18.40;99.90
15564;DHT22;7883;52.554;13.364;2023-04-24T14:34:13;18.40;99.90
15564;DHT22;7883;52.554;13.364;2023-04-24T14:36:40;18.40;99.90
15564;DHT22;7883;52.554;13.364;2023-04-24T14:39:09;18.20;99.90
15564;DHT22;7883;52.554;13.364;2023-04-24T14:41:36;18.20;99.90
15564;DHT22;7883;52.554;13.364;2023-04-24T14:44:04;18.10;99.90
15564;DHT22;7883;52.554;13.364;2023-04-24T14:46:31;18.10;99.90
15564;DHT22;7883;52.554;13.364;2023-04-24T14:48:58;18.00;99.90
15564;DHT22;7883;52.554;13.364;2023-04-24T14:51:26;17.90;99.90
15564;DHT22;7883;52.554;13.364;2023-04-24T14:53:53;17.90;99.90
15564;DHT22;7883;52.554;13.364;2023-04-24T14:56:21;18.00;99.90
15564;DHT22;7883;52.554;13.364;2023-04-24T14:58:51;17.90;99.90
15564;DHT22;7883;52.554;13.364;2023-04-24T15:01:18;17.90;99.90
15564;DHT22;7883;52.554;13.364;2023-04-24T15:03:45;17.90;99.90
15564;DHT22;7883;52.554;13.364;2023-04-24T15:06:12;17.90;99.90
15564;DHT22;7883;52.554;13.364;2023-04-24T15:08:39;18.10;99.90
15564;DHT22;7883;52.554;13.364;2023-04-24T15:11:07;18.10;99.90
15564;DHT22;7883;52.554;13.364;2023-04-24T15:13:36;18.10;99.90
15564;DHT22;7883;52.554;13.364;2023-04-24T15:16:03;18.00;99.90
15564;DHT22;7883;52.554;13.364;2023-04-24T15:18:32;18.00;99.90
15564;DHT22;7883;52.554;13.364;2023-04-24T15:20:59;18.00;99.90
15564;DHT22;7883;52.554;13.364;2023-04-24T15:23:26;18.00;99.90
15564;DHT22;7883;52.554;13.364;2023-04-24T15:25:54;18.20;99.90
15564;DHT22;7883;52.554;13.364;2023-04-24T15:28:25;18.30;99.90
15564;DHT22;7883;52.554;13.364;2023-04-24T15:30:54;18.50;99.90
15564;DHT22;7883;52.554;13.364;2023-04-24T15:33:21;18.60;99.90
15564;DHT22;7883;52.554;13.364;2023-04-24T15:35:48;18.70;99.90